createdAt,value
2023-01-06T00:01:09.034Z,21.60
2023-01-06T00:03:36.386Z,21.85
2023-01-06T00:06:06.231Z,21.05
2023-01-06T00:08:34.962Z,19.67
2023-01-06T00:11:09.620Z,20.42
2023-01-06T00:13:36.739Z,21.42
2023-01-06T00:16:05.994Z,20.08
2023-01-06T00:18:32.772Z,21.42
2023-01-06T00:20:59.994Z,23.27
2023-01-06T00:25:53.678Z,22.70
2023-01-06T00:28:20.670Z,18.63
2023-01-06T00:30:47.558Z,25.25
2023-01-06T00:33:14.447Z,24.58
2023-01-06T00:35:41.307Z,24.90
2023-01-06T00:38:08.326Z,20.98
2023-01-06T00:40:36.978Z,21.63
2023-01-06T00:43:04.423Z,25.63
2023-01-06T00:45:31.306Z,24.63
2023-01-06T00:47:58.190Z,26.63
2023-01-06T00:50:25.126Z,24.38
2023-01-06T00:52:51.940Z,23.45
2023-01-06T00:55:18.713Z,22.55
2023-01-06T00:57:45.498Z,22.33
2023-01-06T01:00:12.842Z,21.10
2023-01-06T01:02:39.668Z,20.60
2023-01-06T01:05:06.749Z,22.52
2023-01-06T01:07:33.472Z,17.02
2023-01-06T01:10:00.202Z,18.42
2023-01-06T01:12:26.959Z,19.85
2023-01-06T01:14:54.659Z,17.27
2023-01-06T01:17:24.510Z,19.92
2023-01-06T01:19:54.414Z,19.30
2023-01-06T01:22:25.593Z,20.23
2023-01-06T01:24:52.505Z,18.67
2023-01-06T01:27:19.524Z,18.73
2023-01-06T01:29:46.264Z,19.35
2023-01-06T01:32:12.973Z,20.45
2023-01-06T01:34:39.826Z,23.77
2023-01-06T01:37:06.633Z,23.17
2023-01-06T01:39:33.409Z,28.45
2023-01-06T01:42:00.410Z,21.25
2023-01-06T01:44:48.052Z,26.17
2023-01-06T01:47:20.270Z,23.88
2023-01-06T01:49:49.475Z,24.02
2023-01-06T01:52:17.930Z,25.15
2023-01-06T01:54:45.886Z,24.17
2023-01-06T01:57:19.680Z,23.23
2023-01-06T01:59:46.759Z,25.67
2023-01-06T02:02:17.871Z,24.83
2023-01-06T02:04:48.825Z,25.25
2023-01-06T02:07:16.378Z,21.23
2023-01-06T02:09:54.948Z,24.60
2023-01-06T02:12:21.673Z,19.80
2023-01-06T02:14:48.382Z,19.08
2023-01-06T02:17:21.137Z,19.60
2023-01-06T02:20:26.765Z,19.80
2023-01-06T02:23:05.998Z,21.77
2023-01-06T02:25:51.539Z,22.35
2023-01-06T02:28:58.513Z,23.75
2023-01-06T02:31:43.508Z,24.48
2023-01-06T02:34:20.942Z,24.40
2023-01-06T02:37:03.093Z,21.67
2023-01-06T02:40:05.988Z,23.45
2023-01-06T02:42:52.437Z,25.48
2023-01-06T02:45:40.874Z,15.80
2023-01-06T02:48:13.777Z,17.88
2023-01-06T02:50:56.591Z,15.70
2023-01-06T02:53:45.536Z,15.30
2023-01-06T02:56:12.387Z,16.25
2023-01-06T02:58:54.186Z,21.95
2023-01-06T03:01:27.722Z,26.73
2023-01-06T03:03:59.156Z,26.70
2023-01-06T03:06:30.254Z,26.05
2023-01-06T03:08:59.373Z,25.15
2023-01-06T03:11:28.928Z,29.88
2023-01-06T03:14:04.945Z,27.70
2023-01-06T03:16:33.342Z,27.17
2023-01-06T03:19:01.019Z,28.77
2023-01-06T03:21:35.133Z,28.67
2023-01-06T03:24:05.938Z,28.83
2023-01-06T03:26:33.310Z,32.60
2023-01-06T03:29:02.235Z,27.58
2023-01-06T03:31:38.284Z,28.80
2023-01-06T03:34:22.762Z,30.27
2023-01-06T03:37:03.090Z,28.23
2023-01-06T03:39:45.429Z,24.17
2023-01-06T03:42:49.809Z,23.38
2023-01-06T03:45:26.456Z,41.15
2023-01-06T03:48:22.631Z,41.42
2023-01-06T03:51:00.068Z,30.02
2023-01-06T03:53:42.758Z,30.77
2023-01-06T03:56:25.999Z,26.38
2023-01-06T03:58:58.910Z,30.38
2023-01-06T04:01:26.837Z,33.50
2023-01-06T04:03:55.652Z,25.58
2023-01-06T04:06:25.903Z,26.70
2023-01-06T04:11:38.776Z,35.08
2023-01-06T04:14:05.697Z,27.05
2023-01-06T04:16:33.577Z,25.13
2023-01-06T04:19:00.507Z,24.90
2023-01-06T04:21:27.353Z,29.85
2023-01-06T04:23:54.188Z,29.00
2023-01-06T04:26:20.906Z,33.30
2023-01-06T04:28:50.382Z,36.45
2023-01-06T04:31:18.137Z,29.08
2023-01-06T04:33:45.814Z,28.70
2023-01-06T04:36:14.537Z,31.15
2023-01-06T04:38:44.962Z,32.42
2023-01-06T04:41:11.788Z,56.17
2023-01-06T04:43:38.671Z,28.98
2023-01-06T04:46:05.575Z,28.60
2023-01-06T04:48:32.353Z,31.10
2023-01-06T04:51:08.001Z,32.20
2023-01-06T04:53:40.171Z,33.58
2023-01-06T04:56:09.687Z,38.55
2023-01-06T04:58:36.963Z,32.13
2023-01-06T05:01:10.176Z,26.77
2023-01-06T05:03:37.474Z,28.80
2023-01-06T05:08:32.401Z,29.02
2023-01-06T05:11:04.141Z,30.08
2023-01-06T05:13:34.362Z,24.08
2023-01-06T05:16:01.259Z,27.80
2023-01-06T05:18:28.015Z,29.67
2023-01-06T05:20:55.188Z,28.23
2023-01-06T05:23:22.316Z,28.77
2023-01-06T05:28:17.442Z,28.10
2023-01-06T05:30:44.387Z,33.42
2023-01-06T05:33:11.127Z,30.42
2023-01-06T05:35:37.910Z,28.35
2023-01-06T05:38:04.901Z,29.50
2023-01-06T05:40:31.682Z,28.70
2023-01-06T05:42:58.918Z,25.73
2023-01-06T05:47:53.041Z,23.13
2023-01-06T05:52:46.314Z,21.13
2023-01-06T05:55:13.072Z,25.42
2023-01-06T05:57:39.749Z,25.48
2023-01-06T06:00:08.400Z,23.73
2023-01-06T06:02:40.964Z,20.60
2023-01-06T06:05:09.150Z,18.20
2023-01-06T06:07:35.941Z,19.73
2023-01-06T06:10:03.294Z,16.35
2023-01-06T06:12:30.243Z,18.08
2023-01-06T06:14:56.994Z,22.42
2023-01-06T06:17:24.250Z,22.08
2023-01-06T06:22:17.982Z,19.92
2023-01-06T06:24:44.749Z,20.02
2023-01-06T06:27:11.500Z,21.58
2023-01-06T06:29:38.224Z,21.38
2023-01-06T06:32:05.256Z,34.03
2023-01-06T06:34:32.119Z,25.35
2023-01-06T06:36:58.886Z,27.88
2023-01-06T06:39:25.668Z,33.28
2023-01-06T06:41:52.386Z,60.53
2023-01-06T06:44:19.353Z,31.60
2023-01-06T06:46:46.628Z,29.88
2023-01-06T06:51:40.166Z,28.08
2023-01-06T06:54:06.943Z,27.85
2023-01-06T06:56:33.863Z,23.42
2023-01-06T06:59:00.637Z,26.55
2023-01-06T07:01:28.028Z,32.67
2023-01-06T07:03:54.834Z,29.58
2023-01-06T07:06:24.127Z,33.70
2023-01-06T07:08:51.315Z,31.42
2023-01-06T07:11:18.563Z,23.30
2023-01-06T07:16:12.741Z,28.23
2023-01-06T07:18:40.114Z,31.63
2023-01-06T07:23:34.129Z,35.65
2023-01-06T07:28:29.713Z,36.38
2023-01-06T07:30:56.849Z,77.13
2023-01-06T07:33:23.922Z,26.73
2023-01-06T07:35:55.840Z,13.18
2023-01-06T07:38:24.187Z,19.45
2023-01-06T07:40:51.228Z,22.60
2023-01-06T07:43:18.364Z,18.83
2023-01-06T07:45:48.793Z,18.05
2023-01-06T07:48:16.324Z,15.68
2023-01-06T07:50:43.084Z,18.65
2023-01-06T07:53:10.385Z,72.35
2023-01-06T07:55:37.603Z,107.15
2023-01-06T08:00:32.100Z,54.60
2023-01-06T08:02:59.334Z,18.85
2023-01-06T08:07:55.695Z,17.23
2023-01-06T08:10:22.846Z,14.73
2023-01-06T08:12:49.937Z,15.18
2023-01-06T08:15:17.167Z,14.57
2023-01-06T08:17:44.344Z,14.13
2023-01-06T08:20:11.760Z,11.55
2023-01-06T08:22:38.634Z,11.38
2023-01-06T08:25:05.764Z,12.38
2023-01-06T08:27:32.475Z,10.52
2023-01-06T08:29:59.610Z,10.57
2023-01-06T08:34:53.576Z,11.63
2023-01-06T08:37:20.337Z,9.50
2023-01-06T08:39:49.041Z,9.23
2023-01-06T08:42:15.817Z,8.93
2023-01-06T08:44:42.568Z,11.63
2023-01-06T08:47:09.284Z,11.25
2023-01-06T08:49:36.042Z,14.73
2023-01-06T08:52:03.737Z,14.38
2023-01-06T08:54:30.483Z,13.98
2023-01-06T08:56:57.455Z,12.95
2023-01-06T08:59:24.359Z,13.85
2023-01-06T09:01:52.086Z,11.10
2023-01-06T09:04:19.012Z,11.95
2023-01-06T09:06:47.354Z,11.70
2023-01-06T09:09:14.312Z,12.18
2023-01-06T09:11:42.762Z,11.93
2023-01-06T09:14:10.792Z,12.18
2023-01-06T09:16:37.579Z,12.27
2023-01-06T09:19:04.356Z,12.00
2023-01-06T09:21:31.535Z,12.32
2023-01-06T09:26:25.903Z,11.32
2023-01-06T09:28:52.733Z,10.55
2023-01-06T09:31:19.776Z,10.73
2023-01-06T09:33:46.577Z,10.35
2023-01-06T09:36:13.301Z,10.85
2023-01-06T09:38:40.124Z,11.35
2023-01-06T09:41:36.224Z,11.05
2023-01-06T09:44:17.734Z,10.45
2023-01-06T09:46:47.028Z,11.35
2023-01-06T09:49:32.597Z,10.20
2023-01-06T09:52:07.494Z,9.07
2023-01-06T09:54:51.325Z,9.15
2023-01-06T09:57:30.541Z,8.95
2023-01-06T10:00:11.389Z,19.70
2023-01-06T10:02:40.907Z,8.68
2023-01-06T10:05:26.116Z,9.20
2023-01-06T10:08:03.553Z,8.80
2023-01-06T10:10:38.421Z,8.55
2023-01-06T10:13:10.810Z,7.93
2023-01-06T10:15:53.788Z,9.88
2023-01-06T10:18:26.395Z,11.27
2023-01-06T10:21:13.863Z,8.32
2023-01-06T10:24:07.766Z,9.70
2023-01-06T10:26:43.987Z,8.65
2023-01-06T10:29:19.384Z,7.55
2023-01-06T10:31:48.617Z,7.85
2023-01-06T10:34:24.893Z,7.32
2023-01-06T10:37:20.245Z,7.60
2023-01-06T10:39:54.045Z,7.57
2023-01-06T10:42:42.408Z,7.63
2023-01-06T10:45:13.518Z,8.10
2023-01-06T10:47:43.063Z,7.28
2023-01-06T10:50:18.051Z,7.05
2023-01-06T10:52:46.467Z,7.10
2023-01-06T10:55:26.187Z,6.60
2023-01-06T10:57:55.190Z,7.38
2023-01-06T11:00:24.197Z,14.13
2023-01-06T11:03:09.115Z,7.63
2023-01-06T11:05:40.854Z,6.60
2023-01-06T11:08:14.564Z,6.97
2023-01-06T11:10:53.928Z,6.38
2023-01-06T11:13:29.375Z,6.13
2023-01-06T11:15:57.289Z,6.45
2023-01-06T11:18:30.294Z,5.85
2023-01-06T11:21:16.323Z,5.70
2023-01-06T11:23:46.545Z,5.32
2023-01-06T11:26:28.169Z,5.57
2023-01-06T11:28:55.694Z,4.55
2023-01-06T11:31:28.412Z,4.80
2023-01-06T11:34:01.994Z,5.30
2023-01-06T11:36:31.897Z,6.72
2023-01-06T11:39:21.782Z,5.57
2023-01-06T11:41:51.325Z,6.82
2023-01-06T11:44:39.900Z,6.18
2023-01-06T11:47:24.976Z,5.82
2023-01-06T11:49:59.134Z,6.00
2023-01-06T11:52:31.281Z,5.25
2023-01-06T11:54:59.719Z,6.53
2023-01-06T11:57:49.013Z,5.65
2023-01-06T12:00:22.351Z,6.82
2023-01-06T12:03:15.454Z,5.65
2023-01-06T12:06:03.941Z,5.35
2023-01-06T12:08:41.733Z,6.10
2023-01-06T12:11:45.963Z,7.60
2023-01-06T12:14:28.498Z,6.20
2023-01-06T12:17:00.942Z,7.47
2023-01-06T12:19:48.579Z,6.03
2023-01-06T12:22:36.996Z,7.40
2023-01-06T12:25:06.607Z,7.75
2023-01-06T12:28:02.028Z,7.28
2023-01-06T12:30:53.730Z,7.53
2023-01-06T12:33:29.984Z,7.22
2023-01-06T12:36:06.302Z,7.13
2023-01-06T12:38:52.042Z,7.53
2023-01-06T12:41:23.761Z,7.75
2023-01-06T12:44:09.934Z,7.18
2023-01-06T12:46:48.951Z,7.72
2023-01-06T12:49:34.790Z,7.30
2023-01-06T12:52:07.355Z,8.60
2023-01-06T12:54:35.770Z,8.65
2023-01-06T12:57:41.436Z,8.35
2023-01-06T13:00:21.670Z,8.48
2023-01-06T13:03:00.665Z,8.10
2023-01-06T13:05:47.333Z,8.95
2023-01-06T13:08:32.761Z,9.52
2023-01-06T13:11:09.749Z,7.95
2023-01-06T13:13:48.080Z,7.55
2023-01-06T13:16:24.195Z,8.18
2023-01-06T13:18:58.665Z,7.30
2023-01-06T13:21:26.829Z,7.57
2023-01-06T13:24:27.929Z,7.53
2023-01-06T13:26:57.334Z,8.07
2023-01-06T13:29:39.475Z,7.78
2023-01-06T13:32:37.185Z,8.15
2023-01-06T13:35:33.026Z,7.25
2023-01-06T13:38:23.291Z,7.78
2023-01-06T13:40:52.811Z,7.97
2023-01-06T13:43:27.740Z,8.55
2023-01-06T13:46:05.701Z,8.45
2023-01-06T13:48:36.103Z,8.98
2023-01-06T13:51:06.872Z,17.73
2023-01-06T13:53:39.710Z,9.23
2023-01-06T13:56:12.673Z,8.55
2023-01-06T13:58:40.107Z,8.90
2023-01-06T14:01:07.193Z,8.95
2023-01-06T14:03:34.735Z,8.60
2023-01-06T14:06:03.058Z,8.48
2023-01-06T14:08:34.385Z,8.20
2023-01-06T14:11:22.878Z,8.57
2023-01-06T14:13:53.263Z,7.65
2023-01-06T14:16:20.608Z,7.43
2023-01-06T14:19:03.565Z,7.43
2023-01-06T14:21:31.027Z,7.88
2023-01-06T14:24:03.778Z,8.45
2023-01-06T14:26:55.727Z,8.65
2023-01-06T14:29:41.250Z,8.45
2023-01-06T14:32:31.527Z,8.65
2023-01-06T14:35:02.994Z,7.80
2023-01-06T14:37:52.929Z,8.68
2023-01-06T14:40:26.723Z,8.95
2023-01-06T14:42:56.920Z,9.02
2023-01-06T14:45:28.249Z,8.63
2023-01-06T14:48:00.834Z,9.00
2023-01-06T14:50:46.491Z,9.23
2023-01-06T14:53:28.513Z,9.45
2023-01-06T14:55:56.070Z,8.90
2023-01-06T14:58:34.394Z,9.43
2023-01-06T15:01:02.883Z,9.68
2023-01-06T15:03:30.892Z,10.57
2023-01-06T15:06:20.619Z,10.32
2023-01-06T15:08:48.147Z,12.07
2023-01-06T15:11:24.742Z,10.45
2023-01-06T15:13:51.856Z,10.93
2023-01-06T15:16:38.446Z,11.98
2023-01-06T15:19:13.426Z,10.95
2023-01-06T15:21:42.141Z,11.70
2023-01-06T15:24:24.001Z,11.32
2023-01-06T15:26:53.815Z,11.93
2023-01-06T15:29:24.462Z,10.73
2023-01-06T15:31:53.415Z,12.10
2023-01-06T15:34:25.475Z,12.52
2023-01-06T15:36:55.017Z,11.90
2023-01-06T15:39:33.466Z,11.70
2023-01-06T15:42:02.631Z,12.05
2023-01-06T15:44:35.431Z,12.00
2023-01-06T15:47:05.122Z,13.02
2023-01-06T15:49:42.573Z,12.77
2023-01-06T15:52:22.917Z,13.80
2023-01-06T15:54:51.444Z,14.00
2023-01-06T15:57:18.391Z,16.77
2023-01-06T16:00:00.995Z,17.52
2023-01-06T16:02:31.149Z,17.70
2023-01-06T16:04:59.601Z,20.15
2023-01-06T16:07:41.174Z,17.90
2023-01-06T16:10:31.389Z,15.57
2023-01-06T16:13:10.453Z,15.05
2023-01-06T16:16:24.821Z,15.02
2023-01-06T16:18:54.345Z,10.13
2023-01-06T16:21:26.110Z,11.95
2023-01-06T16:23:56.518Z,12.70
2023-01-06T16:26:27.731Z,11.23
2023-01-06T16:28:57.213Z,9.20
2023-01-06T16:31:34.935Z,10.95
2023-01-06T16:37:02.224Z,13.75
2023-01-06T16:39:29.884Z,15.27
2023-01-06T16:42:00.011Z,15.95
2023-01-06T16:44:31.245Z,16.15
2023-01-06T16:46:59.093Z,16.48
2023-01-06T16:49:26.005Z,16.35
2023-01-06T16:51:54.715Z,14.43
2023-01-06T16:54:22.604Z,11.77
2023-01-06T16:56:52.113Z,17.13
2023-01-06T16:59:20.443Z,15.15
2023-01-06T17:01:48.677Z,16.35
2023-01-06T17:04:15.950Z,14.98
2023-01-06T17:06:44.974Z,13.18
2023-01-06T17:09:23.013Z,10.32
2023-01-06T17:11:52.879Z,12.95
2023-01-06T17:14:21.928Z,18.48
2023-01-06T17:16:53.270Z,15.30
2023-01-06T17:19:28.618Z,21.70
2023-01-06T17:22:12.164Z,16.42
2023-01-06T17:24:40.151Z,12.75
2023-01-06T17:27:23.561Z,11.38
2023-01-06T17:29:51.691Z,9.88
2023-01-06T17:32:41.240Z,21.08
2023-01-06T17:35:25.426Z,17.75
2023-01-06T17:37:53.140Z,9.77
2023-01-06T17:40:31.788Z,14.55
2023-01-06T17:43:03.052Z,21.73
2023-01-06T17:45:30.019Z,16.17
2023-01-06T17:47:57.189Z,11.32
2023-01-06T17:53:36.702Z,11.52
2023-01-06T17:56:07.450Z,12.07
2023-01-06T17:58:38.076Z,10.02
2023-01-06T18:01:08.519Z,13.85
2023-01-06T18:03:39.996Z,14.15
2023-01-06T18:06:18.695Z,10.30
2023-01-06T18:08:46.825Z,11.00
2023-01-06T18:11:39.056Z,12.20
2023-01-06T18:14:22.557Z,14.65
2023-01-06T18:16:54.217Z,16.73
2023-01-06T18:19:33.133Z,11.68
2023-01-06T18:22:02.248Z,12.20
2023-01-06T18:24:35.051Z,13.80
2023-01-06T18:27:06.681Z,13.70
2023-01-06T18:29:36.884Z,13.30
2023-01-06T18:32:25.907Z,13.20
2023-01-06T18:34:55.448Z,13.75
2023-01-06T18:37:25.392Z,16.23
2023-01-06T18:39:56.956Z,14.77
2023-01-06T18:42:29.622Z,17.55
2023-01-06T18:45:19.019Z,17.00
2023-01-06T18:48:17.568Z,16.98
2023-01-06T18:50:46.536Z,18.05
2023-01-06T18:53:13.237Z,20.73
2023-01-06T18:55:51.179Z,14.45
2023-01-06T18:58:23.837Z,13.70
2023-01-06T19:00:56.963Z,13.30
2023-01-06T19:03:35.848Z,11.50
2023-01-06T19:06:36.118Z,9.73
2023-01-06T19:09:19.669Z,9.60
2023-01-06T19:11:47.879Z,9.10
2023-01-06T19:14:19.168Z,10.90
2023-01-06T19:16:55.141Z,11.30
2023-01-06T19:19:39.744Z,12.18
2023-01-06T19:22:09.446Z,12.55
2023-01-06T19:24:41.328Z,11.55
2023-01-06T19:27:30.578Z,12.23
2023-01-06T19:30:12.835Z,9.68
2023-01-06T19:32:40.103Z,12.07
2023-01-06T19:37:54.823Z,10.77
2023-01-06T19:40:35.668Z,13.52
2023-01-06T19:43:15.786Z,13.75
2023-01-06T19:45:43.345Z,13.93
2023-01-06T19:48:30.340Z,13.57
2023-01-06T19:51:11.708Z,13.45
2023-01-06T19:53:43.500Z,15.52
2023-01-06T19:56:46.849Z,15.48
2023-01-06T19:59:29.170Z,11.68
2023-01-06T20:02:32.245Z,11.82
2023-01-06T20:04:59.214Z,15.18
2023-01-06T20:07:26.005Z,18.75
2023-01-06T20:09:53.968Z,24.63
2023-01-06T20:12:20.734Z,27.90
2023-01-06T20:14:47.471Z,22.75
2023-01-06T20:17:16.609Z,22.70
2023-01-06T20:19:43.297Z,23.85
2023-01-06T20:22:10.029Z,20.08
2023-01-06T20:24:36.735Z,16.17
2023-01-06T20:27:03.573Z,18.05
2023-01-06T20:29:30.403Z,16.08
2023-01-06T20:31:57.130Z,20.88
2023-01-06T20:34:23.979Z,14.27
2023-01-06T20:36:50.722Z,15.75
2023-01-06T20:39:17.508Z,16.15
2023-01-06T20:41:44.234Z,14.80
2023-01-06T20:44:10.941Z,17.67
2023-01-06T20:46:37.664Z,18.08
2023-01-06T20:49:04.376Z,17.80
2023-01-06T20:51:31.284Z,17.38
2023-01-06T20:53:57.985Z,17.73
2023-01-06T20:56:24.772Z,22.00
2023-01-06T20:58:51.572Z,20.45
2023-01-06T21:01:18.556Z,21.02
2023-01-06T21:03:45.367Z,22.35
2023-01-06T21:06:12.256Z,23.00
2023-01-06T21:08:38.997Z,22.38
2023-01-06T21:11:05.953Z,16.42
2023-01-06T21:13:32.691Z,13.52
2023-01-06T21:15:59.428Z,13.98
2023-01-06T21:18:26.142Z,14.50
2023-01-06T21:20:52.906Z,15.88
2023-01-06T21:23:19.666Z,15.90
2023-01-06T21:25:46.376Z,16.52
2023-01-06T21:28:13.123Z,14.45
2023-01-06T21:30:39.996Z,15.57
2023-01-06T21:33:06.716Z,13.40
2023-01-06T21:35:34.132Z,18.60
2023-01-06T21:38:00.951Z,17.75
2023-01-06T21:40:27.725Z,21.95
2023-01-06T21:43:09.780Z,19.58
2023-01-06T21:45:38.288Z,18.45
2023-01-06T21:48:06.010Z,12.73
2023-01-06T21:50:36.728Z,12.57
2023-01-06T21:53:03.576Z,10.52
2023-01-06T21:55:30.654Z,14.50
2023-01-06T21:57:57.463Z,17.95
2023-01-06T22:00:24.200Z,19.08
2023-01-06T22:02:52.794Z,17.95
2023-01-06T22:05:20.169Z,19.15
2023-01-06T22:07:50.450Z,17.13
2023-01-06T22:10:20.883Z,18.02
2023-01-06T22:12:52.100Z,17.50
2023-01-06T22:15:20.670Z,25.95
2023-01-06T22:17:47.578Z,25.30
2023-01-06T22:20:14.951Z,25.95
2023-01-06T22:22:42.015Z,26.45
2023-01-06T22:25:09.470Z,26.75
2023-01-06T22:27:36.193Z,26.58
2023-01-06T22:30:03.891Z,26.80
2023-01-06T22:32:31.862Z,23.55
2023-01-06T22:34:58.709Z,19.33
2023-01-06T22:37:25.573Z,17.52
2023-01-06T22:39:52.302Z,13.80
2023-01-06T22:42:19.840Z,11.77
2023-01-06T22:44:47.498Z,11.10
2023-01-06T22:47:15.720Z,13.38
2023-01-06T22:49:42.516Z,15.90
2023-01-06T22:52:09.228Z,11.20
2023-01-06T22:54:35.967Z,12.55
2023-01-06T22:57:02.723Z,14.25
2023-01-06T22:59:29.404Z,7.50
2023-01-06T23:01:56.241Z,9.55
2023-01-06T23:04:23.057Z,8.63
2023-01-06T23:06:49.938Z,8.43
2023-01-06T23:09:16.871Z,12.63
2023-01-06T23:11:44.014Z,11.52
2023-01-06T23:14:12.750Z,12.65
2023-01-06T23:16:41.088Z,8.07
2023-01-06T23:19:11.120Z,8.07
2023-01-06T23:21:38.060Z,8.73
2023-01-06T23:24:05.643Z,12.00
2023-01-06T23:26:37.365Z,12.75
2023-01-06T23:29:04.321Z,13.90
2023-01-06T23:31:33.925Z,7.50
2023-01-06T23:34:05.089Z,10.10
2023-01-06T23:36:32.540Z,8.05
2023-01-06T23:39:01.202Z,11.57
2023-01-06T23:41:31.128Z,11.45
2023-01-06T23:43:58.386Z,10.65
2023-01-06T23:48:54.394Z,17.85
2023-01-06T23:51:22.391Z,16.83
2023-01-06T23:53:49.212Z,37.28
2023-01-06T23:56:19.188Z,26.48
2023-01-06T23:58:48.268Z,13.05
